createdAt,value
2019-03-21T00:00:00.836Z,37.70
2019-03-21T00:02:31.867Z,37.60
2019-03-21T00:05:01.947Z,37.60
2019-03-21T00:07:31.893Z,37.70
2019-03-21T00:10:14.470Z,37.80
2019-03-21T00:12:44.411Z,37.80
2019-03-21T00:15:24.731Z,37.90
2019-03-21T00:18:04.301Z,37.80
2019-03-21T00:20:34.219Z,37.70
2019-03-21T00:23:04.221Z,38.00
2019-03-21T00:25:34.156Z,38.00
2019-03-21T00:28:04.095Z,38.10
2019-03-21T00:30:35.310Z,38.10
2019-03-21T00:33:05.264Z,38.20
2019-03-21T00:35:35.191Z,38.10
2019-03-21T00:38:05.124Z,38.20
2019-03-21T00:40:37.732Z,38.20
2019-03-21T00:43:10.149Z,38.00
2019-03-21T00:45:40.174Z,38.40
2019-03-21T00:48:12.289Z,38.40
2019-03-21T00:50:42.524Z,38.30
2019-03-21T00:53:12.435Z,38.40
2019-03-21T00:55:43.363Z,38.50
2019-03-21T00:58:13.369Z,38.50
2019-03-21T01:00:46.160Z,38.50
2019-03-21T01:03:16.491Z,38.60
2019-03-21T01:05:46.692Z,38.50
2019-03-21T01:08:16.708Z,38.60
2019-03-21T01:10:46.643Z,38.60
2019-03-21T01:13:16.762Z,38.70
2019-03-21T01:15:46.700Z,38.70
2019-03-21T01:18:16.611Z,38.80
2019-03-21T01:20:46.521Z,38.80
2019-03-21T01:23:16.463Z,38.90
2019-03-21T01:25:49.062Z,39.00
2019-03-21T01:28:19.048Z,39.00
2019-03-21T01:30:48.980Z,39.00
2019-03-21T01:33:19.272Z,39.00
2019-03-21T01:35:49.298Z,39.10
2019-03-21T01:38:19.864Z,39.10
2019-03-21T01:40:50.497Z,39.10
2019-03-21T01:43:20.731Z,39.20
2019-03-21T01:45:50.653Z,39.20
2019-03-21T01:48:20.665Z,39.30
2019-03-21T01:50:50.576Z,39.30
2019-03-21T01:53:20.519Z,39.30
2019-03-21T01:55:50.468Z,39.30
2019-03-21T01:58:20.482Z,39.30
2019-03-21T02:00:51.791Z,39.40
2019-03-21T02:03:21.727Z,39.40
2019-03-21T02:05:51.716Z,39.40
2019-03-21T02:08:21.639Z,39.50
2019-03-21T02:10:51.556Z,39.50
2019-03-21T02:13:21.487Z,39.60
2019-03-21T02:15:51.527Z,39.60
2019-03-21T02:18:21.477Z,39.60
2019-03-21T02:20:51.464Z,39.60
2019-03-21T02:23:21.375Z,39.50
2019-03-21T02:25:51.400Z,39.60
2019-03-21T02:28:21.312Z,39.70
2019-03-21T02:30:51.267Z,39.70
2019-03-21T02:33:27.111Z,39.80
2019-03-21T02:35:58.908Z,39.80
2019-03-21T02:38:28.904Z,39.80
2019-03-21T02:40:59.972Z,39.90
2019-03-21T02:43:31.018Z,40.00
2019-03-21T02:46:01.262Z,40.00
2019-03-21T02:48:31.240Z,40.10
2019-03-21T02:51:01.091Z,40.10
2019-03-21T02:53:31.385Z,40.10
2019-03-21T02:56:01.365Z,40.20
2019-03-21T02:58:31.313Z,40.20
2019-03-21T03:01:01.243Z,40.30
2019-03-21T03:03:32.969Z,40.40
2019-03-21T03:06:04.546Z,40.40
2019-03-21T03:08:34.478Z,40.50
2019-03-21T03:11:05.519Z,40.50
2019-03-21T03:13:35.508Z,40.60
2019-03-21T03:16:06.557Z,40.60
2019-03-21T03:18:36.540Z,40.70
2019-03-21T03:21:06.649Z,40.80
2019-03-21T03:23:36.540Z,40.80
2019-03-21T03:26:06.573Z,40.80
2019-03-21T03:28:36.649Z,40.90
2019-03-21T03:31:06.571Z,40.80
2019-03-21T03:33:36.618Z,40.90
2019-03-21T03:36:06.747Z,41.00
2019-03-21T03:38:36.736Z,41.00
2019-03-21T03:41:06.927Z,41.20
2019-03-21T03:43:36.884Z,41.40
2019-03-21T03:46:06.908Z,41.30
2019-03-21T03:48:36.891Z,41.30
2019-03-21T03:51:06.816Z,41.30
2019-03-21T03:53:36.831Z,41.30
2019-03-21T03:56:06.776Z,41.30
2019-03-21T03:58:37.996Z,41.40
2019-03-21T04:01:07.933Z,41.50
2019-03-21T04:03:37.896Z,41.40
2019-03-21T04:06:09.172Z,41.60
2019-03-21T04:08:39.114Z,41.50
2019-03-21T04:11:09.146Z,41.60
2019-03-21T04:13:39.065Z,41.70
2019-03-21T04:16:09.084Z,41.70
2019-03-21T04:18:39.304Z,41.80
2019-03-21T04:21:09.928Z,41.70
2019-03-21T04:23:39.865Z,41.80
2019-03-21T04:26:22.620Z,41.70
2019-03-21T04:28:52.722Z,41.80
2019-03-21T04:31:22.715Z,41.90
2019-03-21T04:33:54.108Z,41.90
2019-03-21T04:36:24.272Z,42.50
2019-03-21T04:38:54.260Z,42.00
2019-03-21T04:41:24.293Z,42.20
2019-03-21T04:43:54.264Z,42.10
2019-03-21T04:46:24.260Z,42.00
2019-03-21T04:48:54.144Z,42.00
2019-03-21T04:51:24.088Z,42.20
2019-03-21T04:53:54.005Z,42.10
2019-03-21T04:56:24.169Z,42.20
2019-03-21T04:58:54.177Z,42.30
2019-03-21T05:01:24.166Z,42.40
2019-03-21T05:03:55.069Z,42.30
2019-03-21T05:06:25.003Z,42.40
2019-03-21T05:08:55.013Z,42.50
2019-03-21T05:11:24.940Z,42.50
2019-03-21T05:13:54.851Z,42.50
2019-03-21T05:16:24.795Z,42.60
2019-03-21T05:18:55.637Z,42.70
2019-03-21T05:21:25.553Z,42.70
2019-03-21T05:23:55.491Z,42.70
2019-03-21T05:26:25.428Z,43.30
2019-03-21T05:28:55.347Z,42.80
2019-03-21T05:31:28.709Z,42.80
2019-03-21T05:33:58.625Z,42.90
2019-03-21T05:36:28.551Z,43.00
2019-03-21T05:38:58.470Z,43.00
2019-03-21T05:41:29.261Z,43.00
2019-03-21T05:44:02.978Z,43.00
2019-03-21T05:46:33.452Z,43.00
2019-03-21T05:49:03.368Z,43.00
2019-03-21T05:51:33.300Z,43.00
2019-03-21T05:54:03.264Z,43.10
2019-03-21T05:56:33.219Z,43.10
2019-03-21T05:59:03.172Z,43.20
2019-03-21T06:01:33.175Z,43.20
2019-03-21T06:04:03.107Z,43.20
2019-03-21T06:06:49.104Z,43.20
2019-03-21T06:09:20.472Z,43.20
2019-03-21T06:11:54.368Z,43.50
2019-03-21T06:14:24.607Z,43.30
2019-03-21T06:16:54.520Z,43.30
2019-03-21T06:20:23.096Z,43.20
2019-03-21T06:23:24.949Z,43.30
2019-03-21T06:26:10.851Z,43.30
2019-03-21T06:28:40.789Z,43.10
2019-03-21T06:31:10.713Z,43.20
2019-03-21T06:33:40.649Z,43.20
2019-03-21T06:36:10.569Z,43.20
2019-03-21T06:38:40.595Z,43.30
2019-03-21T06:41:10.537Z,43.30
2019-03-21T06:43:40.534Z,43.30
2019-03-21T06:46:10.547Z,43.30
2019-03-21T06:48:40.487Z,43.40
2019-03-21T06:51:10.502Z,43.30
2019-03-21T06:53:40.415Z,43.30
2019-03-21T06:56:10.332Z,43.30
2019-03-21T06:58:40.417Z,43.40
2019-03-21T07:01:10.432Z,43.30
2019-03-21T07:03:40.351Z,43.20
2019-03-21T07:06:10.292Z,43.20
2019-03-21T07:08:40.202Z,43.20
2019-03-21T07:11:10.128Z,43.20
2019-03-21T07:13:40.064Z,43.50
2019-03-21T07:16:09.986Z,43.10
2019-03-21T07:18:40.008Z,42.90
2019-03-21T07:21:09.984Z,42.90
2019-03-21T07:23:39.916Z,42.90
2019-03-21T07:26:09.859Z,42.80
2019-03-21T07:28:39.880Z,42.70
2019-03-21T07:31:11.450Z,42.60
2019-03-21T07:33:41.536Z,42.60
2019-03-21T07:36:12.473Z,42.50
2019-03-21T07:38:42.420Z,42.40
2019-03-21T07:41:12.413Z,42.50
2019-03-21T07:43:42.356Z,42.40
2019-03-21T07:46:12.303Z,42.20
2019-03-21T07:48:42.236Z,42.20
2019-03-21T07:51:12.151Z,42.20
2019-03-21T07:53:42.085Z,42.10
2019-03-21T07:56:12.005Z,42.00
2019-03-21T07:58:41.944Z,41.90
2019-03-21T08:01:11.958Z,41.80
2019-03-21T08:03:41.972Z,41.60
2019-03-21T08:06:11.909Z,41.50
2019-03-21T08:08:41.845Z,41.40
2019-03-21T08:11:11.773Z,41.30
2019-03-21T08:13:41.712Z,41.20
2019-03-21T08:16:11.572Z,41.10
2019-03-21T08:18:41.544Z,41.10
2019-03-21T08:21:11.560Z,41.10
2019-03-21T08:23:41.496Z,41.00
2019-03-21T08:26:11.442Z,40.10
2019-03-21T08:28:41.367Z,39.90
2019-03-21T08:31:18.424Z,39.80
2019-03-21T08:33:48.467Z,39.80
2019-03-21T08:36:18.490Z,39.70
2019-03-21T08:38:48.517Z,39.60
2019-03-21T08:41:18.527Z,39.50
2019-03-21T08:43:48.457Z,39.50
2019-03-21T08:46:18.415Z,39.30
2019-03-21T08:48:48.443Z,39.20
2019-03-21T08:51:18.391Z,39.80
2019-03-21T08:53:48.420Z,39.10
2019-03-21T08:56:18.331Z,39.60
2019-03-21T08:58:48.257Z,38.80
2019-03-21T09:01:18.208Z,38.70
2019-03-21T09:03:48.207Z,38.50
2019-03-21T09:06:18.144Z,38.30
2019-03-21T09:08:48.092Z,38.30
2019-03-21T09:11:18.023Z,38.30
2019-03-21T09:13:47.950Z,38.20
2019-03-21T09:16:17.898Z,38.00
2019-03-21T09:18:47.812Z,37.90
2019-03-21T09:21:19.997Z,37.80
2019-03-21T09:23:49.423Z,37.80
2019-03-21T09:26:19.340Z,37.60
2019-03-21T09:28:49.434Z,37.40
2019-03-21T09:31:19.373Z,37.30
2019-03-21T09:33:49.362Z,37.50
2019-03-21T09:36:19.296Z,37.30
2019-03-21T09:38:49.252Z,37.20
2019-03-21T09:41:19.191Z,37.20
2019-03-21T09:43:49.180Z,37.20
2019-03-21T09:46:20.221Z,37.00
2019-03-21T09:48:50.233Z,36.80
2019-03-21T09:51:30.537Z,36.40
2019-03-21T09:53:51.819Z,36.20
2019-03-21T09:56:23.999Z,36.10
2019-03-21T09:58:53.467Z,35.80
2019-03-21T10:01:23.421Z,35.70
2019-03-21T10:03:53.368Z,35.60
2019-03-21T10:06:23.301Z,35.30
2019-03-21T10:08:53.208Z,35.20
2019-03-21T10:11:23.150Z,34.80
2019-03-21T10:13:52.987Z,34.60
2019-03-21T10:16:22.912Z,34.50
2019-03-21T10:18:52.831Z,34.20
2019-03-21T10:21:22.749Z,34.00
2019-03-21T10:23:52.691Z,33.60
2019-03-21T10:26:22.611Z,33.40
2019-03-21T10:28:52.608Z,33.00
2019-03-21T10:31:22.548Z,32.80
2019-03-21T10:33:52.460Z,32.40
2019-03-21T10:36:24.172Z,32.10
2019-03-21T10:38:54.191Z,31.90
2019-03-21T10:41:24.105Z,31.70
2019-03-21T10:43:54.025Z,31.50
2019-03-21T10:46:23.968Z,31.10
2019-03-21T10:48:53.968Z,30.80
2019-03-21T10:51:23.969Z,30.20
2019-03-21T10:53:53.924Z,30.00
2019-03-21T10:56:24.025Z,29.90
2019-03-21T10:58:53.940Z,29.50
2019-03-21T11:01:24.056Z,29.40
2019-03-21T11:03:54.016Z,29.30
2019-03-21T11:06:24.091Z,29.10
2019-03-21T11:08:54.011Z,28.80
2019-03-21T11:11:23.934Z,28.60
2019-03-21T11:13:53.950Z,28.50
2019-03-21T11:16:23.871Z,28.10
2019-03-21T11:18:53.804Z,27.80
2019-03-21T11:21:23.811Z,27.50
2019-03-21T11:23:53.756Z,27.30
2019-03-21T11:26:23.705Z,27.10
2019-03-21T11:28:53.695Z,26.90
2019-03-21T11:31:24.793Z,26.80
2019-03-21T11:33:54.732Z,26.70
2019-03-21T11:36:24.696Z,26.30
2019-03-21T11:38:54.629Z,26.00
2019-03-21T11:41:24.579Z,25.80
2019-03-21T11:43:54.576Z,25.70
2019-03-21T11:46:25.685Z,25.60
2019-03-21T11:48:55.677Z,25.40
2019-03-21T11:51:25.699Z,25.50
2019-03-21T11:53:55.645Z,24.70
2019-03-21T11:56:25.661Z,24.50
2019-03-21T11:58:55.623Z,24.30
2019-03-21T12:01:25.536Z,24.10
2019-03-21T12:03:55.480Z,23.90
2019-03-21T12:06:44.164Z,23.80
2019-03-21T12:09:14.404Z,23.60
2019-03-21T12:11:44.248Z,23.50
2019-03-21T12:14:14.164Z,23.40
2019-03-21T12:16:44.120Z,23.10
2019-03-21T12:19:14.364Z,23.00
2019-03-21T12:21:44.285Z,23.10
2019-03-21T12:24:14.150Z,22.80
2019-03-21T12:26:44.055Z,22.70
2019-03-21T12:29:13.990Z,22.60
2019-03-21T12:31:43.928Z,22.40
2019-03-21T12:34:13.971Z,22.30
2019-03-21T12:36:43.908Z,22.10
2019-03-21T12:39:13.836Z,21.80
2019-03-21T12:41:43.820Z,21.70
2019-03-21T12:44:15.569Z,21.70
2019-03-21T12:46:45.563Z,21.60
2019-03-21T12:49:15.557Z,21.60
2019-03-21T12:51:45.980Z,21.50
2019-03-21T12:54:15.980Z,21.60
2019-03-21T12:56:45.972Z,21.60
2019-03-21T12:59:16.009Z,21.50
2019-03-21T13:01:46.007Z,21.40
2019-03-21T13:04:15.957Z,21.30
2019-03-21T13:06:45.872Z,21.10
2019-03-21T13:09:15.849Z,21.20
2019-03-21T13:11:45.772Z,21.20
2019-03-21T13:14:15.697Z,21.10
2019-03-21T13:16:45.711Z,21.20
2019-03-21T13:19:15.630Z,21.30
2019-03-21T13:21:45.636Z,21.40
2019-03-21T13:24:19.176Z,21.50
2019-03-21T13:26:47.236Z,21.60
2019-03-21T13:29:17.151Z,21.60
2019-03-21T13:31:47.143Z,21.80
2019-03-21T13:34:17.140Z,22.10
2019-03-21T13:36:47.124Z,21.90
2019-03-21T13:39:17.063Z,22.00
2019-03-21T13:41:46.981Z,22.20
2019-03-21T13:44:16.917Z,22.30
2019-03-21T13:46:46.848Z,22.40
2019-03-21T13:49:16.706Z,22.40
2019-03-21T13:51:46.736Z,22.40
2019-03-21T13:54:16.647Z,22.50
2019-03-21T13:56:46.568Z,22.70
2019-03-21T13:59:16.575Z,22.80
2019-03-21T14:01:46.564Z,23.00
2019-03-21T14:04:16.547Z,23.10
2019-03-21T14:06:46.753Z,23.30
2019-03-21T14:09:16.700Z,23.40
2019-03-21T14:11:46.635Z,23.40
2019-03-21T14:14:16.904Z,23.80
2019-03-21T14:16:46.964Z,23.30
2019-03-21T14:19:16.796Z,23.30
2019-03-21T14:21:46.712Z,23.50
2019-03-21T14:24:16.661Z,23.60
2019-03-21T14:26:46.781Z,23.60
2019-03-21T14:29:16.772Z,23.50
2019-03-21T14:31:46.763Z,23.60
2019-03-21T14:34:17.321Z,23.50
2019-03-21T14:36:47.336Z,23.60
2019-03-21T14:39:17.680Z,23.80
2019-03-21T14:41:47.665Z,23.90
2019-03-21T14:44:19.468Z,24.10
2019-03-21T14:46:49.496Z,24.20
2019-03-21T14:49:19.408Z,24.10
2019-03-21T14:51:49.343Z,24.10
2019-03-21T14:54:19.272Z,24.20
2019-03-21T14:56:49.199Z,24.30
2019-03-21T14:59:19.217Z,24.40
2019-03-21T15:01:49.151Z,24.40
2019-03-21T15:04:19.117Z,24.40
2019-03-21T15:06:49.080Z,24.60
2019-03-21T15:09:19.015Z,24.70
2019-03-21T15:11:49.027Z,24.80
2019-03-21T15:14:19.164Z,24.90
2019-03-21T15:16:49.079Z,25.10
2019-03-21T15:19:18.996Z,25.10
2019-03-21T15:21:48.944Z,25.10
2019-03-21T15:24:18.857Z,24.90
2019-03-21T15:26:51.115Z,24.90
2019-03-21T15:29:20.443Z,24.80
2019-03-21T15:31:50.355Z,24.90
2019-03-21T15:34:22.036Z,24.50
2019-03-21T15:36:51.968Z,24.30
2019-03-21T15:39:21.896Z,24.30
2019-03-21T15:41:51.840Z,24.40
2019-03-21T15:44:23.220Z,24.40
2019-03-21T15:46:53.208Z,24.50
2019-03-21T15:49:23.412Z,24.50
2019-03-21T15:51:53.363Z,24.60
2019-03-21T15:54:23.357Z,24.60
2019-03-21T15:56:53.336Z,24.70
2019-03-21T15:59:23.252Z,24.80
2019-03-21T16:01:53.168Z,24.70
2019-03-21T16:04:23.177Z,24.80
2019-03-21T16:06:53.103Z,24.70
2019-03-21T16:09:23.024Z,24.60
2019-03-21T16:11:52.968Z,24.50
2019-03-21T16:14:22.972Z,24.50
2019-03-21T16:16:52.964Z,24.40
2019-03-21T16:19:22.895Z,24.60
2019-03-21T16:21:52.813Z,24.60
2019-03-21T16:24:22.820Z,25.20
2019-03-21T16:26:52.732Z,24.90
2019-03-21T16:29:22.649Z,25.10
2019-03-21T16:31:52.588Z,25.10
2019-03-21T16:34:22.509Z,25.20
2019-03-21T16:36:52.511Z,25.30
2019-03-21T16:39:22.422Z,25.30
2019-03-21T16:41:52.359Z,25.30
2019-03-21T16:44:22.659Z,25.40
2019-03-21T16:46:52.601Z,25.40
2019-03-21T16:49:22.624Z,25.50
2019-03-21T16:51:52.607Z,25.60
2019-03-21T16:54:22.532Z,25.60
2019-03-21T16:56:52.683Z,25.70
2019-03-21T16:59:22.604Z,25.80
2019-03-21T17:01:52.529Z,25.90
2019-03-21T17:04:22.488Z,26.00
2019-03-21T17:06:52.476Z,26.10
2019-03-21T17:09:22.489Z,26.20
2019-03-21T17:11:52.511Z,26.40
2019-03-21T17:14:22.446Z,26.60
2019-03-21T17:16:52.484Z,26.80
2019-03-21T17:19:22.484Z,26.90
2019-03-21T17:21:52.413Z,27.10
2019-03-21T17:24:29.141Z,27.30
2019-03-21T17:26:53.987Z,27.40
2019-03-21T17:29:23.928Z,27.50
2019-03-21T17:31:53.898Z,27.70
2019-03-21T17:34:23.824Z,27.90
2019-03-21T17:36:53.833Z,28.20
2019-03-21T17:39:23.924Z,28.20
2019-03-21T17:41:53.851Z,28.30
2019-03-21T17:44:23.837Z,28.40
2019-03-21T17:46:53.783Z,29.00
2019-03-21T17:49:23.727Z,28.60
2019-03-21T17:51:53.668Z,29.20
2019-03-21T17:54:23.699Z,28.80
2019-03-21T17:56:53.723Z,28.90
2019-03-21T17:59:23.656Z,28.90
2019-03-21T18:01:53.977Z,28.90
2019-03-21T18:04:24.332Z,29.10
2019-03-21T18:06:54.247Z,29.20
2019-03-21T18:09:24.168Z,29.30
2019-03-21T18:11:54.518Z,29.30
2019-03-21T18:14:26.245Z,29.40
2019-03-21T18:16:56.234Z,29.40
2019-03-21T18:19:26.251Z,29.40
2019-03-21T18:21:56.245Z,29.60
2019-03-21T18:24:26.167Z,29.70
2019-03-21T18:26:57.213Z,29.80
2019-03-21T18:29:27.133Z,29.90
2019-03-21T18:31:57.082Z,29.90
2019-03-21T18:34:27.115Z,30.00
2019-03-21T18:36:57.034Z,30.00
2019-03-21T18:39:28.014Z,30.00
2019-03-21T18:41:58.036Z,30.20
2019-03-21T18:44:27.964Z,30.30
2019-03-21T18:46:57.916Z,30.30
2019-03-21T18:49:27.833Z,30.40
2019-03-21T18:51:57.751Z,30.50
2019-03-21T18:54:27.693Z,30.50
2019-03-21T18:56:57.620Z,30.80
2019-03-21T18:59:27.560Z,30.80
2019-03-21T19:01:58.859Z,30.80
2019-03-21T19:04:29.092Z,30.90
2019-03-21T19:06:59.120Z,31.00
2019-03-21T19:09:29.304Z,31.20
2019-03-21T19:12:00.365Z,31.10
2019-03-21T19:14:30.365Z,31.00
2019-03-21T19:17:00.294Z,31.00
2019-03-21T19:19:30.300Z,31.10
2019-03-21T19:22:00.224Z,31.20
2019-03-21T19:24:30.169Z,31.20
2019-03-21T19:27:00.115Z,31.40
2019-03-21T19:29:30.059Z,31.80
2019-03-21T19:32:00.084Z,31.50
2019-03-21T19:34:30.016Z,31.70
2019-03-21T19:36:59.952Z,31.90
2019-03-21T19:39:29.936Z,32.00
2019-03-21T19:41:59.969Z,32.20
2019-03-21T19:44:29.963Z,32.30
2019-03-21T19:47:01.456Z,32.30
2019-03-21T19:49:31.564Z,32.60
2019-03-21T19:52:01.516Z,32.60
2019-03-21T19:54:31.487Z,33.10
2019-03-21T19:57:01.530Z,32.90
2019-03-21T19:59:32.770Z,33.00
2019-03-21T20:02:02.996Z,33.10
2019-03-21T20:04:34.136Z,33.20
2019-03-21T20:07:04.235Z,33.20
2019-03-21T20:09:34.183Z,33.40
2019-03-21T20:12:04.131Z,33.50
2019-03-21T20:14:34.056Z,33.50
2019-03-21T20:17:05.836Z,33.60
2019-03-21T20:19:35.775Z,33.60
2019-03-21T20:22:05.693Z,33.80
2019-03-21T20:24:35.638Z,33.90
2019-03-21T20:27:05.780Z,33.90
2019-03-21T20:29:35.748Z,34.00
2019-03-21T20:32:05.720Z,34.10
2019-03-21T20:34:35.660Z,34.10
2019-03-21T20:37:05.660Z,34.20
2019-03-21T20:39:37.172Z,35.20
2019-03-21T20:42:07.476Z,35.30
2019-03-21T20:44:37.399Z,35.40
2019-03-21T20:47:07.391Z,35.50
2019-03-21T20:49:37.332Z,35.50
2019-03-21T20:52:07.184Z,35.60
2019-03-21T20:54:37.225Z,35.70
2019-03-21T20:57:07.144Z,35.70
2019-03-21T20:59:37.098Z,35.80
2019-03-21T21:02:07.296Z,35.90
2019-03-21T21:04:37.309Z,35.90
2019-03-21T21:07:07.244Z,36.00
2019-03-21T21:09:37.197Z,36.20
2019-03-21T21:12:07.200Z,36.10
2019-03-21T21:14:37.179Z,36.10
2019-03-21T21:17:07.124Z,36.20
2019-03-21T21:19:37.049Z,36.20
2019-03-21T21:22:06.964Z,36.30
2019-03-21T21:24:36.900Z,36.50
2019-03-21T21:27:06.852Z,36.50
2019-03-21T21:29:36.800Z,36.60
2019-03-21T21:32:06.747Z,36.60
2019-03-21T21:34:36.680Z,36.60
2019-03-21T21:37:06.600Z,36.70
2019-03-21T21:39:36.509Z,36.80
2019-03-21T21:42:06.456Z,36.90
2019-03-21T21:44:36.467Z,36.90
2019-03-21T21:47:06.463Z,37.00
2019-03-21T21:49:36.496Z,37.60
2019-03-21T21:52:06.480Z,37.10
2019-03-21T21:54:36.404Z,37.20
2019-03-21T21:57:06.340Z,37.20
2019-03-21T21:59:36.337Z,37.30
2019-03-21T22:02:06.409Z,37.30
2019-03-21T22:04:36.391Z,37.40
2019-03-21T22:07:06.316Z,37.50
2019-03-21T22:09:36.202Z,37.60
2019-03-21T22:12:06.143Z,37.60
2019-03-21T22:14:36.127Z,37.80
2019-03-21T22:17:06.145Z,37.80
2019-03-21T22:19:36.085Z,37.90
2019-03-21T22:22:05.925Z,38.50
2019-03-21T22:24:35.968Z,38.00
2019-03-21T22:27:05.964Z,38.10
2019-03-21T22:29:35.912Z,38.20
2019-03-21T22:32:05.861Z,38.20
2019-03-21T22:34:35.783Z,38.30
2019-03-21T22:37:05.829Z,38.40
2019-03-21T22:39:35.756Z,38.50
2019-03-21T22:42:05.704Z,38.50
2019-03-21T22:44:35.625Z,38.60
2019-03-21T22:47:05.724Z,38.80
2019-03-21T22:49:35.747Z,38.60
2019-03-21T22:52:05.778Z,38.60
2019-03-21T22:54:35.791Z,38.80
2019-03-21T22:57:05.721Z,38.70
2019-03-21T22:59:35.631Z,38.80
2019-03-21T23:02:05.653Z,38.80
2019-03-21T23:04:35.595Z,38.90
2019-03-21T23:07:05.716Z,38.90
2019-03-21T23:09:35.637Z,39.50
2019-03-21T23:12:05.845Z,38.90
2019-03-21T23:14:35.849Z,38.90
2019-03-21T23:17:06.787Z,39.00
2019-03-21T23:19:36.773Z,39.10
2019-03-21T23:22:06.689Z,39.10
2019-03-21T23:24:36.635Z,39.20
2019-03-21T23:27:06.707Z,39.20
2019-03-21T23:29:36.620Z,39.30
2019-03-21T23:32:06.568Z,39.30
2019-03-21T23:34:36.488Z,39.30
2019-03-21T23:37:06.424Z,39.40
2019-03-21T23:39:37.839Z,39.40
2019-03-21T23:42:07.752Z,39.50
2019-03-21T23:44:37.664Z,39.60
2019-03-21T23:47:07.603Z,39.60
2019-03-21T23:49:37.517Z,39.60
2019-03-21T23:52:07.438Z,39.70
2019-03-21T23:54:37.468Z,39.80
2019-03-21T23:57:07.384Z,39.80
2019-03-21T23:59:38.761Z,39.80
